sensor_id;sensor_type;location;lat;lon;timestamp;temperature;humidity
19928;DHT22;10126;50.876;4.470;2023-05-07T00:00:30;17.30;99.90
19928;DHT22;10126;50.876;4.470;2023-05-07T00:02:31;17.30;99.90
19928;DHT22;10126;50.876;4.470;2023-05-07T00:04:33;17.30;99.90
19928;DHT22;10126;50.876;4.470;2023-05-07T00:06:37;17.30;99.90
19928;DHT22;10126;50.876;4.470;2023-05-07T00:08:38;17.30;99.90
19928;DHT22;10126;50.876;4.470;2023-05-07T00:10:38;17.30;99.90
19928;DHT22;10126;50.876;4.470;2023-05-07T00:12:40;17.30;99.90
19928;DHT22;10126;50.876;4.470;2023-05-07T00:14:41;17.30;99.90
19928;DHT22;10126;50.876;4.470;2023-05-07T00:16:42;17.30;99.90
19928;DHT22;10126;50.876;4.470;2023-05-07T00:18:43;17.40;99.90
19928;DHT22;10126;50.876;4.470;2023-05-07T00:20:43;17.40;99.90
19928;DHT22;10126;50.876;4.470;2023-05-07T00:22:44;17.40;99.90
19928;DHT22;10126;50.876;4.470;2023-05-07T00:24:45;17.50;99.90
19928;DHT22;10126;50.876;4.470;2023-05-07T00:26:46;17.60;99.90
19928;DHT22;10126;50.876;4.470;2023-05-07T00:28:46;17.60;99.90
19928;DHT22;10126;50.876;4.470;2023-05-07T00:30:47;17.70;99.90
19928;DHT22;10126;50.876;4.470;2023-05-07T00:32:47;17.70;99.90
19928;DHT22;10126;50.876;4.470;2023-05-07T00:34:49;17.60;99.90
19928;DHT22;10126;50.876;4.470;2023-05-07T00:36:51;17.50;99.90
19928;DHT22;10126;50.876;4.470;2023-05-07T00:38:54;17.40;99.90
19928;DHT22;10126;50.876;4.470;2023-05-07T00:40:55;17.30;99.90
19928;DHT22;10126;50.876;4.470;2023-05-07T00:42:56;17.40;99.90
19928;DHT22;10126;50.876;4.470;2023-05-07T00:44:58;17.40;99.90
19928;DHT22;10126;50.876;4.470;2023-05-07T00:47:02;17.40;99.90
19928;DHT22;10126;50.876;4.470;2023-05-07T00:49:03;17.40;99.90
19928;DHT22;10126;50.876;4.470;2023-05-07T00:51:05;17.40;99.90
19928;DHT22;10126;50.876;4.470;2023-05-07T00:53:06;17.40;99.90
19928;DHT22;10126;50.876;4.470;2023-05-07T00:55:07;17.20;99.90
19928;DHT22;10126;50.876;4.470;2023-05-07T00:57:09;17.30;99.90
19928;DHT22;10126;50.876;4.470;2023-05-07T00:59:11;17.40;99.90
19928;DHT22;10126;50.876;4.470;2023-05-07T01:01:12;17.50;99.90
19928;DHT22;10126;50.876;4.470;2023-05-07T01:03:13;17.60;99.90
19928;DHT22;10126;50.876;4.470;2023-05-07T01:05:16;17.50;99.90
19928;DHT22;10126;50.876;4.470;2023-05-07T01:07:17;17.40;99.90
19928;DHT22;10126;50.876;4.470;2023-05-07T01:09:19;17.30;99.90
19928;DHT22;10126;50.876;4.470;2023-05-07T01:11:20;17.40;99.90
19928;DHT22;10126;50.876;4.470;2023-05-07T01:13:21;17.40;99.90
19928;DHT22;10126;50.876;4.470;2023-05-07T01:15:22;17.20;99.90
19928;DHT22;10126;50.876;4.470;2023-05-07T01:17:23;17.10;99.90
19928;DHT22;10126;50.876;4.470;2023-05-07T01:19:24;17.20;99.90
19928;DHT22;10126;50.876;4.470;2023-05-07T01:21:26;17.10;99.90
19928;DHT22;10126;50.876;4.470;2023-05-07T01:23:27;17.20;99.90
19928;DHT22;10126;50.876;4.470;2023-05-07T01:25:28;17.20;99.90
19928;DHT22;10126;50.876;4.470;2023-05-07T01:27:29;17.20;99.90
19928;DHT22;10126;50.876;4.470;2023-05-07T01:29:30;17.20;99.90
19928;DHT22;10126;50.876;4.470;2023-05-07T01:31:32;17.30;99.90
19928;DHT22;10126;50.876;4.470;2023-05-07T01:33:35;17.30;99.90
19928;DHT22;10126;50.876;4.470;2023-05-07T01:35:43;17.30;99.90
19928;DHT22;10126;50.876;4.470;2023-05-07T01:37:46;17.20;99.90
19928;DHT22;10126;50.876;4.470;2023-05-07T01:39:48;17.20;99.90
19928;DHT22;10126;50.876;4.470;2023-05-07T01:41:49;17.20;99.90
19928;DHT22;10126;50.876;4.470;2023-05-07T01:43:51;17.40;99.90
19928;DHT22;10126;50.876;4.470;2023-05-07T01:45:52;17.40;99.90
19928;DHT22;10126;50.876;4.470;2023-05-07T01:47:54;17.40;99.90
19928;DHT22;10126;50.876;4.470;2023-05-07T01:49:55;17.30;99.90
19928;DHT22;10126;50.876;4.470;2023-05-07T01:51:57;17.30;99.90
19928;DHT22;10126;50.876;4.470;2023-05-07T01:53:58;17.30;99.90
19928;DHT22;10126;50.876;4.470;2023-05-07T01:55:58;17.30;99.90
19928;DHT22;10126;50.876;4.470;2023-05-07T01:57:59;17.20;99.90
19928;DHT22;10126;50.876;4.470;2023-05-07T02:00:00;17.10;99.90
19928;DHT22;10126;50.876;4.470;2023-05-07T02:02:00;17.10;99.90
19928;DHT22;10126;50.876;4.470;2023-05-07T02:04:01;17.10;99.90
19928;DHT22;10126;50.876;4.470;2023-05-07T02:06:01;17.20;99.90
19928;DHT22;10126;50.876;4.470;2023-05-07T02:08:02;17.20;99.90
19928;DHT22;10126;50.876;4.470;2023-05-07T02:10:03;17.20;99.90
19928;DHT22;10126;50.876;4.470;2023-05-07T02:12:04;17.20;99.90
19928;DHT22;10126;50.876;4.470;2023-05-07T02:14:05;17.20;99.90
19928;DHT22;10126;50.876;4.470;2023-05-07T02:16:06;17.30;99.90
19928;DHT22;10126;50.876;4.470;2023-05-07T02:18:08;17.30;99.90
19928;DHT22;10126;50.876;4.470;2023-05-07T02:20:09;17.20;99.90
19928;DHT22;10126;50.876;4.470;2023-05-07T02:22:13;17.20;99.90
19928;DHT22;10126;50.876;4.470;2023-05-07T02:24:14;17.40;99.90
19928;DHT22;10126;50.876;4.470;2023-05-07T02:26:15;17.40;99.90
19928;DHT22;10126;50.876;4.470;2023-05-07T02:28:15;17.40;99.90
19928;DHT22;10126;50.876;4.470;2023-05-07T02:30:16;17.30;99.90
19928;DHT22;10126;50.876;4.470;2023-05-07T02:32:17;17.20;99.90
19928;DHT22;10126;50.876;4.470;2023-05-07T02:34:17;17.10;99.90
19928;DHT22;10126;50.876;4.470;2023-05-07T02:36:18;17.10;99.90
19928;DHT22;10126;50.876;4.470;2023-05-07T02:38:19;17.10;99.90
19928;DHT22;10126;50.876;4.470;2023-05-07T02:40:19;17.20;99.90
19928;DHT22;10126;50.876;4.470;2023-05-07T02:42:20;17.10;99.90
19928;DHT22;10126;50.876;4.470;2023-05-07T02:44:21;17.10;99.90
19928;DHT22;10126;50.876;4.470;2023-05-07T02:46:21;17.00;99.90
19928;DHT22;10126;50.876;4.470;2023-05-07T02:48:22;16.90;99.90
19928;DHT22;10126;50.876;4.470;2023-05-07T02:50:23;16.80;99.90
19928;DHT22;10126;50.876;4.470;2023-05-07T02:52:23;16.80;99.90
19928;DHT22;10126;50.876;4.470;2023-05-07T02:54:24;16.70;99.90
19928;DHT22;10126;50.876;4.470;2023-05-07T02:56:26;16.60;99.90
19928;DHT22;10126;50.876;4.470;2023-05-07T02:58:27;16.50;99.90
19928;DHT22;10126;50.876;4.470;2023-05-07T03:00:28;16.50;99.90
19928;DHT22;10126;50.876;4.470;2023-05-07T03:02:28;16.40;99.90
19928;DHT22;10126;50.876;4.470;2023-05-07T03:04:29;16.50;99.90
19928;DHT22;10126;50.876;4.470;2023-05-07T03:06:30;16.50;99.90
19928;DHT22;10126;50.876;4.470;2023-05-07T03:08:30;16.50;99.90
19928;DHT22;10126;50.876;4.470;2023-05-07T03:10:31;16.50;99.90
19928;DHT22;10126;50.876;4.470;2023-05-07T03:12:32;16.40;99.90
19928;DHT22;10126;50.876;4.470;2023-05-07T03:14:32;16.50;99.90
19928;DHT22;10126;50.876;4.470;2023-05-07T03:16:33;16.50;99.90
19928;DHT22;10126;50.876;4.470;2023-05-07T03:18:34;16.50;99.90
19928;DHT22;10126;50.876;4.470;2023-05-07T03:20:34;16.50;99.90
19928;DHT22;10126;50.876;4.470;2023-05-07T03:22:36;16.60;99.90
19928;DHT22;10126;50.876;4.470;2023-05-07T03:24:37;16.60;99.90
19928;DHT22;10126;50.876;4.470;2023-05-07T03:26:38;16.70;99.90
19928;DHT22;10126;50.876;4.470;2023-05-07T03:28:38;16.70;99.90
19928;DHT22;10126;50.876;4.470;2023-05-07T03:30:39;16.60;99.90
19928;DHT22;10126;50.876;4.470;2023-05-07T03:32:40;16.60;99.90
19928;DHT22;10126;50.876;4.470;2023-05-07T03:34:40;16.60;99.90
19928;DHT22;10126;50.876;4.470;2023-05-07T03:36:41;16.60;99.90
19928;DHT22;10126;50.876;4.470;2023-05-07T03:38:42;16.70;99.90
19928;DHT22;10126;50.876;4.470;2023-05-07T03:40:42;16.90;99.90
19928;DHT22;10126;50.876;4.470;2023-05-07T03:42:43;16.80;99.90
19928;DHT22;10126;50.876;4.470;2023-05-07T03:44:43;16.80;99.90
19928;DHT22;10126;50.876;4.470;2023-05-07T03:46:44;16.80;99.90
19928;DHT22;10126;50.876;4.470;2023-05-07T03:48:45;16.80;99.90
19928;DHT22;10126;50.876;4.470;2023-05-07T03:50:45;16.80;99.90
19928;DHT22;10126;50.876;4.470;2023-05-07T03:52:46;16.80;99.90
19928;DHT22;10126;50.876;4.470;2023-05-07T03:54:48;16.70;99.90
19928;DHT22;10126;50.876;4.470;2023-05-07T03:56:48;16.60;99.90
19928;DHT22;10126;50.876;4.470;2023-05-07T03:58:49;16.70;99.90
19928;DHT22;10126;50.876;4.470;2023-05-07T04:00:50;16.70;99.90
19928;DHT22;10126;50.876;4.470;2023-05-07T04:02:50;16.80;99.90
19928;DHT22;10126;50.876;4.470;2023-05-07T04:04:52;16.80;99.90
19928;DHT22;10126;50.876;4.470;2023-05-07T04:06:52;16.80;99.90
19928;DHT22;10126;50.876;4.470;2023-05-07T04:08:53;16.80;99.90
19928;DHT22;10126;50.876;4.470;2023-05-07T04:10:58;16.80;99.90
19928;DHT22;10126;50.876;4.470;2023-05-07T04:12:58;16.70;99.90
19928;DHT22;10126;50.876;4.470;2023-05-07T04:14:59;16.70;99.90
19928;DHT22;10126;50.876;4.470;2023-05-07T04:17:02;16.80;99.90
19928;DHT22;10126;50.876;4.470;2023-05-07T04:19:03;16.80;99.90
19928;DHT22;10126;50.876;4.470;2023-05-07T04:21:04;16.80;99.90
19928;DHT22;10126;50.876;4.470;2023-05-07T04:23:05;16.70;99.90
19928;DHT22;10126;50.876;4.470;2023-05-07T04:25:06;16.80;99.90
19928;DHT22;10126;50.876;4.470;2023-05-07T04:27:08;16.70;99.90
19928;DHT22;10126;50.876;4.470;2023-05-07T04:29:09;16.80;99.90
19928;DHT22;10126;50.876;4.470;2023-05-07T04:31:09;16.90;99.90
19928;DHT22;10126;50.876;4.470;2023-05-07T04:33:10;16.80;99.90
19928;DHT22;10126;50.876;4.470;2023-05-07T04:35:12;16.70;99.90
19928;DHT22;10126;50.876;4.470;2023-05-07T04:37:12;16.50;99.90
19928;DHT22;10126;50.876;4.470;2023-05-07T04:39:13;16.40;99.90
19928;DHT22;10126;50.876;4.470;2023-05-07T04:41:14;16.60;99.90
19928;DHT22;10126;50.876;4.470;2023-05-07T04:43:15;16.70;99.90
19928;DHT22;10126;50.876;4.470;2023-05-07T04:45:16;16.80;99.90
19928;DHT22;10126;50.876;4.470;2023-05-07T04:47:17;16.90;99.90
19928;DHT22;10126;50.876;4.470;2023-05-07T04:49:17;16.90;99.90
19928;DHT22;10126;50.876;4.470;2023-05-07T04:51:18;17.00;99.90
19928;DHT22;10126;50.876;4.470;2023-05-07T04:53:20;17.10;99.90
19928;DHT22;10126;50.876;4.470;2023-05-07T04:55:21;17.30;99.90
19928;DHT22;10126;50.876;4.470;2023-05-07T04:57:22;17.30;99.90
19928;DHT22;10126;50.876;4.470;2023-05-07T04:59:22;17.20;99.90
19928;DHT22;10126;50.876;4.470;2023-05-07T05:01:23;17.20;99.90
19928;DHT22;10126;50.876;4.470;2023-05-07T05:03:24;17.30;99.90
19928;DHT22;10126;50.876;4.470;2023-05-07T05:05:24;17.40;99.90
19928;DHT22;10126;50.876;4.470;2023-05-07T05:07:25;17.50;99.90
19928;DHT22;10126;50.876;4.470;2023-05-07T05:09:26;17.60;99.90
19928;DHT22;10126;50.876;4.470;2023-05-07T05:11:27;17.70;99.90
19928;DHT22;10126;50.876;4.470;2023-05-07T05:13:27;17.80;99.90
19928;DHT22;10126;50.876;4.470;2023-05-07T05:15:28;17.80;99.90
19928;DHT22;10126;50.876;4.470;2023-05-07T05:17:34;17.80;99.90
19928;DHT22;10126;50.876;4.470;2023-05-07T05:19:35;17.70;99.90
19928;DHT22;10126;50.876;4.470;2023-05-07T05:21:38;17.90;99.90
19928;DHT22;10126;50.876;4.470;2023-05-07T05:23:39;17.90;99.90
19928;DHT22;10126;50.876;4.470;2023-05-07T05:25:40;18.00;99.90
19928;DHT22;10126;50.876;4.470;2023-05-07T05:27:43;18.00;99.90
19928;DHT22;10126;50.876;4.470;2023-05-07T05:29:52;18.10;99.90
19928;DHT22;10126;50.876;4.470;2023-05-07T05:32:02;18.20;99.90
19928;DHT22;10126;50.876;4.470;2023-05-07T05:34:02;18.20;99.90
19928;DHT22;10126;50.876;4.470;2023-05-07T05:36:04;18.30;99.90
19928;DHT22;10126;50.876;4.470;2023-05-07T05:38:08;18.50;99.90
19928;DHT22;10126;50.876;4.470;2023-05-07T05:40:09;18.40;99.90
19928;DHT22;10126;50.876;4.470;2023-05-07T05:42:09;18.40;99.90
19928;DHT22;10126;50.876;4.470;2023-05-07T05:44:10;18.30;99.90
19928;DHT22;10126;50.876;4.470;2023-05-07T05:46:10;18.30;99.90
19928;DHT22;10126;50.876;4.470;2023-05-07T05:48:12;18.20;99.90
19928;DHT22;10126;50.876;4.470;2023-05-07T05:50:12;18.20;99.90
19928;DHT22;10126;50.876;4.470;2023-05-07T05:52:13;18.20;99.90
19928;DHT22;10126;50.876;4.470;2023-05-07T05:54:14;18.20;99.90
19928;DHT22;10126;50.876;4.470;2023-05-07T05:56:16;18.10;99.90
19928;DHT22;10126;50.876;4.470;2023-05-07T05:58:16;18.10;99.90
19928;DHT22;10126;50.876;4.470;2023-05-07T06:00:20;18.10;99.90
19928;DHT22;10126;50.876;4.470;2023-05-07T06:02:22;18.30;99.90
19928;DHT22;10126;50.876;4.470;2023-05-07T06:04:23;18.30;99.90
19928;DHT22;10126;50.876;4.470;2023-05-07T06:06:24;18.30;99.90
19928;DHT22;10126;50.876;4.470;2023-05-07T06:08:24;18.30;99.90
19928;DHT22;10126;50.876;4.470;2023-05-07T06:10:25;18.30;99.90
19928;DHT22;10126;50.876;4.470;2023-05-07T06:12:27;18.40;99.90
19928;DHT22;10126;50.876;4.470;2023-05-07T06:14:28;18.40;99.90
19928;DHT22;10126;50.876;4.470;2023-05-07T06:16:29;18.40;99.90
19928;DHT22;10126;50.876;4.470;2023-05-07T06:18:29;18.30;99.90
19928;DHT22;10126;50.876;4.470;2023-05-07T06:20:33;18.30;99.90
19928;DHT22;10126;50.876;4.470;2023-05-07T06:22:33;18.20;99.90
19928;DHT22;10126;50.876;4.470;2023-05-07T06:24:34;18.10;99.90
19928;DHT22;10126;50.876;4.470;2023-05-07T06:26:38;18.20;99.90
19928;DHT22;10126;50.876;4.470;2023-05-07T06:28:54;17.90;99.90
19928;DHT22;10126;50.876;4.470;2023-05-07T06:30:54;17.70;99.90
19928;DHT22;10126;50.876;4.470;2023-05-07T06:32:55;17.80;99.90
19928;DHT22;10126;50.876;4.470;2023-05-07T06:34:56;17.60;99.90
19928;DHT22;10126;50.876;4.470;2023-05-07T06:36:56;17.50;99.90
19928;DHT22;10126;50.876;4.470;2023-05-07T06:38:57;17.40;99.90
19928;DHT22;10126;50.876;4.470;2023-05-07T06:40:57;17.50;99.90
19928;DHT22;10126;50.876;4.470;2023-05-07T06:42:58;17.70;99.90
19928;DHT22;10126;50.876;4.470;2023-05-07T06:44:59;17.80;99.90
19928;DHT22;10126;50.876;4.470;2023-05-07T06:46:59;17.80;99.90
19928;DHT22;10126;50.876;4.470;2023-05-07T06:49:00;18.00;99.90
19928;DHT22;10126;50.876;4.470;2023-05-07T06:51:01;17.70;99.90
19928;DHT22;10126;50.876;4.470;2023-05-07T06:53:01;17.70;99.90
19928;DHT22;10126;50.876;4.470;2023-05-07T06:55:02;17.50;99.90
19928;DHT22;10126;50.876;4.470;2023-05-07T06:57:03;17.50;99.90
19928;DHT22;10126;50.876;4.470;2023-05-07T06:59:04;17.80;99.90
19928;DHT22;10126;50.876;4.470;2023-05-07T07:01:05;17.80;99.90
19928;DHT22;10126;50.876;4.470;2023-05-07T07:03:06;17.90;99.90
19928;DHT22;10126;50.876;4.470;2023-05-07T07:05:07;18.10;99.90
19928;DHT22;10126;50.876;4.470;2023-05-07T07:07:07;18.20;99.90
19928;DHT22;10126;50.876;4.470;2023-05-07T07:09:08;18.30;99.90
19928;DHT22;10126;50.876;4.470;2023-05-07T07:11:10;18.30;99.90
19928;DHT22;10126;50.876;4.470;2023-05-07T07:13:10;18.10;99.90
19928;DHT22;10126;50.876;4.470;2023-05-07T07:15:11;18.10;99.90
19928;DHT22;10126;50.876;4.470;2023-05-07T07:17:12;18.10;99.90
19928;DHT22;10126;50.876;4.470;2023-05-07T07:19:12;18.10;99.90
19928;DHT22;10126;50.876;4.470;2023-05-07T07:21:15;18.00;99.90
19928;DHT22;10126;50.876;4.470;2023-05-07T07:23:16;18.00;99.90
19928;DHT22;10126;50.876;4.470;2023-05-07T07:25:16;17.90;99.90
19928;DHT22;10126;50.876;4.470;2023-05-07T07:27:29;17.70;99.90
19928;DHT22;10126;50.876;4.470;2023-05-07T07:29:29;17.80;99.90
19928;DHT22;10126;50.876;4.470;2023-05-07T07:31:30;17.70;99.90
19928;DHT22;10126;50.876;4.470;2023-05-07T07:33:31;17.90;99.90
19928;DHT22;10126;50.876;4.470;2023-05-07T07:35:40;18.00;99.90
19928;DHT22;10126;50.876;4.470;2023-05-07T07:37:44;18.20;99.90
19928;DHT22;10126;50.876;4.470;2023-05-07T07:39:44;18.00;99.90
19928;DHT22;10126;50.876;4.470;2023-05-07T07:41:45;18.20;99.90
19928;DHT22;10126;50.876;4.470;2023-05-07T07:43:46;18.20;99.90
19928;DHT22;10126;50.876;4.470;2023-05-07T07:45:49;18.00;99.90
19928;DHT22;10126;50.876;4.470;2023-05-07T07:47:50;18.00;99.90
19928;DHT22;10126;50.876;4.470;2023-05-07T07:49:51;17.90;99.90
19928;DHT22;10126;50.876;4.470;2023-05-07T07:51:51;17.90;99.90
19928;DHT22;10126;50.876;4.470;2023-05-07T07:53:52;18.00;99.90
19928;DHT22;10126;50.876;4.470;2023-05-07T07:55:52;18.00;99.90
19928;DHT22;10126;50.876;4.470;2023-05-07T07:57:53;18.10;99.90
19928;DHT22;10126;50.876;4.470;2023-05-07T07:59:54;17.90;99.90
19928;DHT22;10126;50.876;4.470;2023-05-07T08:01:54;17.70;99.90
19928;DHT22;10126;50.876;4.470;2023-05-07T08:03:57;17.60;99.90
19928;DHT22;10126;50.876;4.470;2023-05-07T08:06:03;17.50;99.90
19928;DHT22;10126;50.876;4.470;2023-05-07T08:08:04;17.60;99.90
19928;DHT22;10126;50.876;4.470;2023-05-07T08:10:05;17.70;99.90
19928;DHT22;10126;50.876;4.470;2023-05-07T08:12:06;17.60;99.90
19928;DHT22;10126;50.876;4.470;2023-05-07T08:14:10;17.70;99.90
19928;DHT22;10126;50.876;4.470;2023-05-07T08:16:11;17.70;99.90
19928;DHT22;10126;50.876;4.470;2023-05-07T08:18:12;17.70;99.90
19928;DHT22;10126;50.876;4.470;2023-05-07T08:20:12;17.80;99.90
19928;DHT22;10126;50.876;4.470;2023-05-07T08:22:13;18.10;99.90
19928;DHT22;10126;50.876;4.470;2023-05-07T08:24:14;18.30;99.90
19928;DHT22;10126;50.876;4.470;2023-05-07T08:26:15;18.10;99.90
19928;DHT22;10126;50.876;4.470;2023-05-07T08:28:16;18.30;99.90
19928;DHT22;10126;50.876;4.470;2023-05-07T08:30:16;18.20;99.90
19928;DHT22;10126;50.876;4.470;2023-05-07T08:32:17;18.10;99.90
19928;DHT22;10126;50.876;4.470;2023-05-07T08:34:18;18.00;99.90
19928;DHT22;10126;50.876;4.470;2023-05-07T08:36:18;18.10;99.90
19928;DHT22;10126;50.876;4.470;2023-05-07T08:38:19;18.20;99.90
19928;DHT22;10126;50.876;4.470;2023-05-07T08:40:22;18.20;99.90
19928;DHT22;10126;50.876;4.470;2023-05-07T08:42:25;18.20;99.90
19928;DHT22;10126;50.876;4.470;2023-05-07T08:44:27;18.30;99.90
19928;DHT22;10126;50.876;4.470;2023-05-07T08:46:31;18.70;99.90
19928;DHT22;10126;50.876;4.470;2023-05-07T08:48:32;18.60;99.90
19928;DHT22;10126;50.876;4.470;2023-05-07T08:50:35;18.70;99.90
19928;DHT22;10126;50.876;4.470;2023-05-07T08:52:37;18.40;99.90
19928;DHT22;10126;50.876;4.470;2023-05-07T08:54:37;18.50;99.90
19928;DHT22;10126;50.876;4.470;2023-05-07T08:56:39;18.50;99.90
19928;DHT22;10126;50.876;4.470;2023-05-07T08:58:40;18.40;99.90
19928;DHT22;10126;50.876;4.470;2023-05-07T09:00:41;18.30;99.90
19928;DHT22;10126;50.876;4.470;2023-05-07T09:02:42;18.20;99.90
19928;DHT22;10126;50.876;4.470;2023-05-07T09:04:43;18.20;99.90
19928;DHT22;10126;50.876;4.470;2023-05-07T09:06:44;18.30;99.90
19928;DHT22;10126;50.876;4.470;2023-05-07T09:08:53;18.60;99.90
19928;DHT22;10126;50.876;4.470;2023-05-07T09:10:54;18.60;99.90
19928;DHT22;10126;50.876;4.470;2023-05-07T09:12:55;18.80;99.90
19928;DHT22;10126;50.876;4.470;2023-05-07T09:14:55;19.10;99.90
19928;DHT22;10126;50.876;4.470;2023-05-07T09:16:56;19.10;99.90
19928;DHT22;10126;50.876;4.470;2023-05-07T09:18:58;19.40;99.90
19928;DHT22;10126;50.876;4.470;2023-05-07T09:21:00;19.60;99.90
19928;DHT22;10126;50.876;4.470;2023-05-07T09:23:01;19.60;99.90
19928;DHT22;10126;50.876;4.470;2023-05-07T09:25:01;19.90;99.90
19928;DHT22;10126;50.876;4.470;2023-05-07T09:27:02;20.10;99.90
19928;DHT22;10126;50.876;4.470;2023-05-07T09:29:03;20.10;99.90
19928;DHT22;10126;50.876;4.470;2023-05-07T09:31:04;20.10;99.90
19928;DHT22;10126;50.876;4.470;2023-05-07T09:33:05;20.00;99.90
19928;DHT22;10126;50.876;4.470;2023-05-07T09:35:06;19.90;99.90
19928;DHT22;10126;50.876;4.470;2023-05-07T09:37:14;19.90;99.90
19928;DHT22;10126;50.876;4.470;2023-05-07T09:39:16;20.20;99.90
19928;DHT22;10126;50.876;4.470;2023-05-07T09:41:16;20.30;99.90
19928;DHT22;10126;50.876;4.470;2023-05-07T09:43:20;19.90;99.90
19928;DHT22;10126;50.876;4.470;2023-05-07T09:45:27;19.80;99.90
19928;DHT22;10126;50.876;4.470;2023-05-07T09:47:32;19.50;99.90
19928;DHT22;10126;50.876;4.470;2023-05-07T09:49:35;19.70;99.90
19928;DHT22;10126;50.876;4.470;2023-05-07T09:51:47;19.70;99.90
19928;DHT22;10126;50.876;4.470;2023-05-07T09:53:50;19.90;99.90
19928;DHT22;10126;50.876;4.470;2023-05-07T09:55:52;20.10;99.90
19928;DHT22;10126;50.876;4.470;2023-05-07T09:57:53;20.40;99.90
19928;DHT22;10126;50.876;4.470;2023-05-07T09:59:56;20.60;99.90
19928;DHT22;10126;50.876;4.470;2023-05-07T10:01:59;20.80;99.90
19928;DHT22;10126;50.876;4.470;2023-05-07T10:04:02;20.70;99.90
19928;DHT22;10126;50.876;4.470;2023-05-07T10:06:04;20.60;99.90
19928;DHT22;10126;50.876;4.470;2023-05-07T10:08:06;20.60;99.90
19928;DHT22;10126;50.876;4.470;2023-05-07T10:10:07;20.50;99.90
19928;DHT22;10126;50.876;4.470;2023-05-07T10:12:09;20.40;99.90
19928;DHT22;10126;50.876;4.470;2023-05-07T10:14:10;20.40;99.90
19928;DHT22;10126;50.876;4.470;2023-05-07T10:16:11;20.60;99.90
19928;DHT22;10126;50.876;4.470;2023-05-07T10:18:12;20.70;99.90
19928;DHT22;10126;50.876;4.470;2023-05-07T10:20:14;20.70;99.90
19928;DHT22;10126;50.876;4.470;2023-05-07T10:22:15;21.00;99.90
19928;DHT22;10126;50.876;4.470;2023-05-07T10:24:21;20.70;99.90
19928;DHT22;10126;50.876;4.470;2023-05-07T10:26:22;20.60;99.90
19928;DHT22;10126;50.876;4.470;2023-05-07T10:28:24;20.70;99.90
19928;DHT22;10126;50.876;4.470;2023-05-07T10:32:49;20.90;99.90
19928;DHT22;10126;50.876;4.470;2023-05-07T10:34:54;20.90;99.90
19928;DHT22;10126;50.876;4.470;2023-05-07T10:36:57;20.80;99.90
19928;DHT22;10126;50.876;4.470;2023-05-07T10:38:57;20.80;99.90
19928;DHT22;10126;50.876;4.470;2023-05-07T10:40:58;20.80;99.90
19928;DHT22;10126;50.876;4.470;2023-05-07T10:43:01;20.90;99.90
19928;DHT22;10126;50.876;4.470;2023-05-07T10:45:14;20.90;99.90
19928;DHT22;10126;50.876;4.470;2023-05-07T10:47:17;20.90;99.90
19928;DHT22;10126;50.876;4.470;2023-05-07T10:49:19;20.90;99.90
19928;DHT22;10126;50.876;4.470;2023-05-07T10:51:21;21.10;99.90
19928;DHT22;10126;50.876;4.470;2023-05-07T10:53:22;21.00;99.90
19928;DHT22;10126;50.876;4.470;2023-05-07T10:55:24;21.00;99.90
19928;DHT22;10126;50.876;4.470;2023-05-07T10:57:32;21.00;99.90
19928;DHT22;10126;50.876;4.470;2023-05-07T10:59:34;21.10;99.90
19928;DHT22;10126;50.876;4.470;2023-05-07T11:04:28;21.30;99.90
19928;DHT22;10126;50.876;4.470;2023-05-07T11:06:30;21.40;99.90
19928;DHT22;10126;50.876;4.470;2023-05-07T11:10:54;21.60;99.90
19928;DHT22;10126;50.876;4.470;2023-05-07T11:12:55;21.50;99.90
19928;DHT22;10126;50.876;4.470;2023-05-07T11:14:57;21.60;99.90
19928;DHT22;10126;50.876;4.470;2023-05-07T11:17:03;21.60;99.90
19928;DHT22;10126;50.876;4.470;2023-05-07T11:19:04;21.70;99.90
19928;DHT22;10126;50.876;4.470;2023-05-07T11:21:05;21.70;99.90
19928;DHT22;10126;50.876;4.470;2023-05-07T11:23:06;21.70;99.90
19928;DHT22;10126;50.876;4.470;2023-05-07T11:25:07;21.70;99.90
19928;DHT22;10126;50.876;4.470;2023-05-07T11:27:08;21.80;99.90
19928;DHT22;10126;50.876;4.470;2023-05-07T11:29:22;22.00;99.90
19928;DHT22;10126;50.876;4.470;2023-05-07T11:31:27;22.00;99.90
19928;DHT22;10126;50.876;4.470;2023-05-07T11:33:30;22.00;99.90
19928;DHT22;10126;50.876;4.470;2023-05-07T11:35:31;21.90;99.90
19928;DHT22;10126;50.876;4.470;2023-05-07T11:37:31;22.00;99.90
19928;DHT22;10126;50.876;4.470;2023-05-07T11:39:32;21.90;99.90
19928;DHT22;10126;50.876;4.470;2023-05-07T11:41:35;21.70;99.90
19928;DHT22;10126;50.876;4.470;2023-05-07T11:43:36;21.80;99.90
19928;DHT22;10126;50.876;4.470;2023-05-07T11:45:37;21.80;99.90
19928;DHT22;10126;50.876;4.470;2023-05-07T11:47:38;21.80;99.90
19928;DHT22;10126;50.876;4.470;2023-05-07T11:49:41;22.00;99.90
19928;DHT22;10126;50.876;4.470;2023-05-07T11:51:42;22.20;99.90
19928;DHT22;10126;50.876;4.470;2023-05-07T11:53:43;22.30;99.90
19928;DHT22;10126;50.876;4.470;2023-05-07T11:55:44;22.50;99.90
19928;DHT22;10126;50.876;4.470;2023-05-07T11:57:45;22.60;99.90
19928;DHT22;10126;50.876;4.470;2023-05-07T11:59:46;22.60;99.90
19928;DHT22;10126;50.876;4.470;2023-05-07T12:01:49;22.60;99.90
19928;DHT22;10126;50.876;4.470;2023-05-07T12:03:50;22.80;99.90
19928;DHT22;10126;50.876;4.470;2023-05-07T12:05:51;22.90;99.90
19928;DHT22;10126;50.876;4.470;2023-05-07T12:07:58;23.10;99.90
19928;DHT22;10126;50.876;4.470;2023-05-07T12:09:59;23.10;99.90
19928;DHT22;10126;50.876;4.470;2023-05-07T12:12:06;23.30;99.90
19928;DHT22;10126;50.876;4.470;2023-05-07T12:14:07;23.40;99.90
19928;DHT22;10126;50.876;4.470;2023-05-07T12:16:09;23.40;99.90
19928;DHT22;10126;50.876;4.470;2023-05-07T12:18:11;22.90;99.90
19928;DHT22;10126;50.876;4.470;2023-05-07T12:20:12;23.30;99.90
19928;DHT22;10126;50.876;4.470;2023-05-07T12:22:13;23.30;99.90
19928;DHT22;10126;50.876;4.470;2023-05-07T12:24:14;23.60;99.90
19928;DHT22;10126;50.876;4.470;2023-05-07T12:26:15;23.60;99.90
19928;DHT22;10126;50.876;4.470;2023-05-07T12:28:17;23.50;99.90
19928;DHT22;10126;50.876;4.470;2023-05-07T12:30:18;23.60;99.90
19928;DHT22;10126;50.876;4.470;2023-05-07T12:32:20;23.50;99.90
19928;DHT22;10126;50.876;4.470;2023-05-07T12:34:22;23.50;99.90
19928;DHT22;10126;50.876;4.470;2023-05-07T12:36:23;23.50;99.90
19928;DHT22;10126;50.876;4.470;2023-05-07T12:38:23;23.60;99.90
19928;DHT22;10126;50.876;4.470;2023-05-07T12:40:35;23.20;99.90
19928;DHT22;10126;50.876;4.470;2023-05-07T12:42:38;23.30;99.90
19928;DHT22;10126;50.876;4.470;2023-05-07T12:44:38;23.30;99.90
19928;DHT22;10126;50.876;4.470;2023-05-07T12:46:39;23.40;99.90
19928;DHT22;10126;50.876;4.470;2023-05-07T12:48:45;23.30;99.90
19928;DHT22;10126;50.876;4.470;2023-05-07T12:50:50;23.30;99.90
19928;DHT22;10126;50.876;4.470;2023-05-07T12:52:51;23.40;99.90
19928;DHT22;10126;50.876;4.470;2023-05-07T12:54:52;23.30;99.90